Anglian Lady — VOLP — position and weather

sailwx.info

Track history (hours):
 
Tides and Currents Weather Stations Pressure Air Temp Water Temp Dewpoint Dewpoint Depression Visibility Wind Speed Wind Dir Waves Ship Positions

Anglian Lady

Last reported at 2017-Oct-15 06:22 UTC. Time now 2017-Oct-17 01:16 UTC.
Position N 45°51' W 084°24'.

Length 32 m.

Type: Tug. MMSI: 316002238.

Date/timePositionNaut miles runAvg speedWind from/ knotsBaromVisibWave heightAir tempDewpointWater temp
2017-Oct-15 06:22N 45°51' W 084°24'2 3.5
2017-Oct-15 05:42N 45°51' W 084°28'1 3.5
2017-Oct-15 05:30N 45°51' W 084°29'3 4.0
2017-Oct-15 04:48N 45°51' W 084°33'2 4.4
2017-Oct-15 04:15N 45°51' W 084°36'4 5.7
2017-Oct-15 03:38N 45°49' W 084°41'1 5.4
2017-Oct-15 03:27N 45°49' W 084°42'2 5.2
2017-Oct-15 03:00N 45°49' W 084°46'3 5.2
2017-Oct-15 02:30N 45°49' W 084°49'3 6.0
2017-Oct-15 02:00N 45°49' W 084°54'3 6.9
2017-Oct-15 01:30N 45°49' W 084°59'3 6.9
2017-Oct-15 01:00N 45°50' W 085°04'3 6.6
2017-Oct-15 00:30N 45°49' W 085°08'4 8.2
2017-Oct-15 00:00N 45°45' W 085°09'4 7.3
2017-Oct-14 23:30N 45°42' W 085°12'4 7.2
2017-Oct-14 23:00N 45°39' W 085°15'4 7.1
2017-Oct-14 22:30N 45°36' W 085°18'4 7.3
2017-Oct-14 22:00N 45°34' W 085°21'4 7.0
2017-Oct-14 21:29N 45°31' W 085°25'3 7.0
2017-Oct-14 21:00N 45°28' W 085°28'3 7.1
2017-Oct-14 20:30N 45°25' W 085°31'4 7.1
2017-Oct-14 20:00N 45°22' W 085°34'4 7.6
2017-Oct-14 19:29N 45°19' W 085°37'4 7.7
2017-Oct-14 19:00N 45°16' W 085°40'  
2017-Oct-06 09:15N 45°52' W 085°17'2 7.6
2017-Oct-06 09:00N 45°52' W 085°14'4 7.6
2017-Oct-06 08:30N 45°51' W 085°09'4 7.6
2017-Oct-06 08:00N 45°51' W 085°04'4 7.5
2017-Oct-06 07:30N 45°50' W 084°58'4 7.5
2017-Oct-06 07:00N 45°50' W 084°53'4 7.4
2017-Oct-06 06:30N 45°49' W 084°48'4 7.2
2017-Oct-06 06:00N 45°49' W 084°43'4 7.4
2017-Oct-06 05:31N 45°50' W 084°38'4 7.0
2017-Oct-06 05:00N 45°51' W 084°33'4 7.4
2017-Oct-06 04:29N 45°52' W 084°28'4 7.2
2017-Oct-06 04:00N 45°52' W 084°23'4 7.2
2017-Oct-06 03:30N 45°53' W 084°18'4 7.2
2017-Oct-06 03:00N 45°53' W 084°12'4 7.1
2017-Oct-06 02:29N 45°54' W 084°07'  
Track history (hours):
 
Tides and Currents Weather Stations Pressure Air Temp Water Temp Dewpoint Dewpoint Depression Visibility Wind Speed Wind Dir Waves Ship Positions

Anglian Lady

Last reported at 2017-Oct-15 06:22 UTC. Time now 2017-Oct-17 01:16 UTC.
Position N 45°51' W 084°24'.

Length 32 m.

Type: Tug. MMSI: 316002238.

Date/timePositionNaut miles runAvg speedWind from/ knotsBaromVisibWave heightAir tempDewpointWater temp
2017-Oct-15 06:22N 45°51' W 084°24'2 3.5
2017-Oct-15 05:42N 45°51' W 084°28'1 3.5
2017-Oct-15 05:30N 45°51' W 084°29'3 4.0
2017-Oct-15 04:48N 45°51' W 084°33'2 4.4
2017-Oct-15 04:15N 45°51' W 084°36'4 5.7
2017-Oct-15 03:38N 45°49' W 084°41'1 5.4
2017-Oct-15 03:27N 45°49' W 084°42'2 5.2
2017-Oct-15 03:00N 45°49' W 084°46'3 5.2
2017-Oct-15 02:30N 45°49' W 084°49'3 6.0
2017-Oct-15 02:00N 45°49' W 084°54'3 6.9
2017-Oct-15 01:30N 45°49' W 084°59'3 6.9
2017-Oct-15 01:00N 45°50' W 085°04'3 6.6
2017-Oct-15 00:30N 45°49' W 085°08'4 8.2
2017-Oct-15 00:00N 45°45' W 085°09'4 7.3
2017-Oct-14 23:30N 45°42' W 085°12'4 7.2
2017-Oct-14 23:00N 45°39' W 085°15'4 7.1
2017-Oct-14 22:30N 45°36' W 085°18'4 7.3
2017-Oct-14 22:00N 45°34' W 085°21'4 7.0
2017-Oct-14 21:29N 45°31' W 085°25'3 7.0
2017-Oct-14 21:00N 45°28' W 085°28'3 7.1
2017-Oct-14 20:30N 45°25' W 085°31'4 7.1
2017-Oct-14 20:00N 45°22' W 085°34'4 7.6
2017-Oct-14 19:29N 45°19' W 085°37'4 7.7
2017-Oct-14 19:00N 45°16' W 085°40'  
2017-Oct-06 09:15N 45°52' W 085°17'2 7.6
2017-Oct-06 09:00N 45°52' W 085°14'4 7.6
2017-Oct-06 08:30N 45°51' W 085°09'4 7.6
2017-Oct-06 08:00N 45°51' W 085°04'4 7.5
2017-Oct-06 07:30N 45°50' W 084°58'4 7.5
2017-Oct-06 07:00N 45°50' W 084°53'4 7.4
2017-Oct-06 06:30N 45°49' W 084°48'4 7.2
2017-Oct-06 06:00N 45°49' W 084°43'4 7.4
2017-Oct-06 05:31N 45°50' W 084°38'4 7.0
2017-Oct-06 05:00N 45°51' W 084°33'4 7.4
2017-Oct-06 04:29N 45°52' W 084°28'4 7.2
2017-Oct-06 04:00N 45°52' W 084°23'4 7.2
2017-Oct-06 03:30N 45°53' W 084°18'4 7.2
2017-Oct-06 03:00N 45°53' W 084°12'4 7.1
2017-Oct-06 02:29N 45°54' W 084°07'  

Dump ship's entire track history